sensor_id;sensor_type;location;lat;lon;timestamp;P1;durP1;ratioP1;P2;durP2;ratioP2
82230;SDS011;71832;45.138;9.816;2024-01-16T00:01:36;41.60;;;22.13;;
82230;SDS011;71832;45.138;9.816;2024-01-16T00:04:08;32.78;;;19.58;;
82230;SDS011;71832;45.138;9.816;2024-01-16T00:06:41;38.83;;;20.17;;
82230;SDS011;71832;45.138;9.816;2024-01-16T00:09:10;37.67;;;21.05;;
82230;SDS011;71832;45.138;9.816;2024-01-16T00:11:42;39.22;;;20.77;;
82230;SDS011;71832;45.138;9.816;2024-01-16T00:14:11;37.22;;;20.13;;
82230;SDS011;71832;45.138;9.816;2024-01-16T00:16:43;38.03;;;21.27;;
82230;SDS011;71832;45.138;9.816;2024-01-16T00:19:13;34.65;;;19.63;;
82230;SDS011;71832;45.138;9.816;2024-01-16T00:21:43;35.30;;;19.67;;
82230;SDS011;71832;45.138;9.816;2024-01-16T00:24:13;30.77;;;17.90;;
82230;SDS011;71832;45.138;9.816;2024-01-16T00:26:41;27.75;;;16.63;;
82230;SDS011;71832;45.138;9.816;2024-01-16T00:29:10;30.98;;;18.60;;
82230;SDS011;71832;45.138;9.816;2024-01-16T00:31:39;29.92;;;17.42;;
82230;SDS011;71832;45.138;9.816;2024-01-16T00:34:07;26.92;;;16.73;;
82230;SDS011;71832;45.138;9.816;2024-01-16T00:36:35;30.23;;;17.40;;
82230;SDS011;71832;45.138;9.816;2024-01-16T00:39:03;29.23;;;17.95;;
82230;SDS011;71832;45.138;9.816;2024-01-16T00:41:33;28.73;;;17.23;;
82230;SDS011;71832;45.138;9.816;2024-01-16T00:44:02;29.25;;;17.42;;
82230;SDS011;71832;45.138;9.816;2024-01-16T00:46:30;26.58;;;16.65;;
82230;SDS011;71832;45.138;9.816;2024-01-16T00:48:59;31.35;;;18.38;;
82230;SDS011;71832;45.138;9.816;2024-01-16T00:51:27;30.85;;;18.85;;
82230;SDS011;71832;45.138;9.816;2024-01-16T00:53:56;33.50;;;18.45;;
82230;SDS011;71832;45.138;9.816;2024-01-16T00:56:25;28.27;;;18.23;;
82230;SDS011;71832;45.138;9.816;2024-01-16T00:58:54;34.42;;;19.38;;
82230;SDS011;71832;45.138;9.816;2024-01-16T01:01:22;36.50;;;20.42;;
82230;SDS011;71832;45.138;9.816;2024-01-16T01:03:50;32.00;;;18.10;;
82230;SDS011;71832;45.138;9.816;2024-01-16T01:06:18;38.92;;;20.05;;
82230;SDS011;71832;45.138;9.816;2024-01-16T01:08:46;34.80;;;19.70;;
82230;SDS011;71832;45.138;9.816;2024-01-16T01:11:14;37.05;;;20.77;;
82230;SDS011;71832;45.138;9.816;2024-01-16T01:13:42;40.08;;;21.02;;
82230;SDS011;71832;45.138;9.816;2024-01-16T01:16:11;39.20;;;21.20;;
82230;SDS011;71832;45.138;9.816;2024-01-16T01:18:40;38.42;;;20.60;;
82230;SDS011;71832;45.138;9.816;2024-01-16T01:21:09;32.05;;;18.70;;
82230;SDS011;71832;45.138;9.816;2024-01-16T01:23:37;31.98;;;19.42;;
82230;SDS011;71832;45.138;9.816;2024-01-16T01:26:04;35.65;;;20.42;;
82230;SDS011;71832;45.138;9.816;2024-01-16T01:28:33;32.65;;;18.25;;
82230;SDS011;71832;45.138;9.816;2024-01-16T01:31:01;34.13;;;19.15;;
82230;SDS011;71832;45.138;9.816;2024-01-16T01:33:30;32.00;;;19.15;;
82230;SDS011;71832;45.138;9.816;2024-01-16T01:35:58;36.80;;;20.17;;
82230;SDS011;71832;45.138;9.816;2024-01-16T01:38:27;39.03;;;20.70;;
82230;SDS011;71832;45.138;9.816;2024-01-16T01:40:56;43.40;;;21.80;;
82230;SDS011;71832;45.138;9.816;2024-01-16T01:43:25;38.20;;;21.17;;
82230;SDS011;71832;45.138;9.816;2024-01-16T01:46:33;34.53;;;20.55;;
82230;SDS011;71832;45.138;9.816;2024-01-16T01:48:46;41.22;;;19.52;;
82230;SDS011;71832;45.138;9.816;2024-01-16T01:51:17;36.28;;;19.38;;
82230;SDS011;71832;45.138;9.816;2024-01-16T01:53:46;40.53;;;20.42;;
82230;SDS011;71832;45.138;9.816;2024-01-16T01:56:17;43.95;;;23.00;;
82230;SDS011;71832;45.138;9.816;2024-01-16T01:58:48;44.22;;;22.35;;
82230;SDS011;71832;45.138;9.816;2024-01-16T02:01:20;41.28;;;21.15;;
82230;SDS011;71832;45.138;9.816;2024-01-16T02:03:51;41.47;;;21.80;;
82230;SDS011;71832;45.138;9.816;2024-01-16T02:06:22;42.78;;;22.08;;
82230;SDS011;71832;45.138;9.816;2024-01-16T02:08:51;45.28;;;22.10;;
82230;SDS011;71832;45.138;9.816;2024-01-16T02:11:19;41.45;;;23.50;;
82230;SDS011;71832;45.138;9.816;2024-01-16T02:13:48;48.70;;;23.48;;
82230;SDS011;71832;45.138;9.816;2024-01-16T02:16:18;46.97;;;23.98;;
82230;SDS011;71832;45.138;9.816;2024-01-16T02:18:48;48.75;;;23.90;;
82230;SDS011;71832;45.138;9.816;2024-01-16T02:21:18;49.95;;;24.17;;
82230;SDS011;71832;45.138;9.816;2024-01-16T02:23:49;42.95;;;22.48;;
82230;SDS011;71832;45.138;9.816;2024-01-16T02:26:18;39.17;;;21.33;;
82230;SDS011;71832;45.138;9.816;2024-01-16T02:28:47;39.72;;;22.42;;
82230;SDS011;71832;45.138;9.816;2024-01-16T02:31:16;40.05;;;21.23;;
82230;SDS011;71832;45.138;9.816;2024-01-16T02:33:45;41.17;;;21.75;;
82230;SDS011;71832;45.138;9.816;2024-01-16T02:36:12;41.53;;;22.02;;
82230;SDS011;71832;45.138;9.816;2024-01-16T02:38:41;39.53;;;20.83;;
82230;SDS011;71832;45.138;9.816;2024-01-16T02:41:12;41.38;;;22.73;;
82230;SDS011;71832;45.138;9.816;2024-01-16T02:43:42;38.55;;;22.23;;
82230;SDS011;71832;45.138;9.816;2024-01-16T02:46:10;40.30;;;20.65;;
82230;SDS011;71832;45.138;9.816;2024-01-16T02:48:39;44.72;;;21.52;;
82230;SDS011;71832;45.138;9.816;2024-01-16T02:51:08;46.03;;;21.77;;
82230;SDS011;71832;45.138;9.816;2024-01-16T02:53:36;43.70;;;24.00;;
82230;SDS011;71832;45.138;9.816;2024-01-16T02:56:05;43.38;;;23.23;;
82230;SDS011;71832;45.138;9.816;2024-01-16T02:58:35;50.03;;;25.10;;
82230;SDS011;71832;45.138;9.816;2024-01-16T03:01:03;46.58;;;23.92;;
82230;SDS011;71832;45.138;9.816;2024-01-16T03:03:32;43.30;;;24.45;;
82230;SDS011;71832;45.138;9.816;2024-01-16T03:06:01;46.67;;;24.08;;
82230;SDS011;71832;45.138;9.816;2024-01-16T03:08:29;49.95;;;23.00;;
82230;SDS011;71832;45.138;9.816;2024-01-16T03:10:58;54.10;;;24.85;;
82230;SDS011;71832;45.138;9.816;2024-01-16T03:13:27;52.13;;;25.80;;
82230;SDS011;71832;45.138;9.816;2024-01-16T03:15:56;47.42;;;25.27;;
82230;SDS011;71832;45.138;9.816;2024-01-16T03:18:24;48.42;;;25.83;;
82230;SDS011;71832;45.138;9.816;2024-01-16T03:20:53;53.25;;;24.45;;
82230;SDS011;71832;45.138;9.816;2024-01-16T03:23:21;42.33;;;22.88;;
82230;SDS011;71832;45.138;9.816;2024-01-16T03:25:50;45.90;;;24.30;;
82230;SDS011;71832;45.138;9.816;2024-01-16T03:28:19;39.38;;;21.95;;
82230;SDS011;71832;45.138;9.816;2024-01-16T03:30:46;40.65;;;21.20;;
82230;SDS011;71832;45.138;9.816;2024-01-16T03:33:15;39.33;;;20.95;;
82230;SDS011;71832;45.138;9.816;2024-01-16T03:35:44;40.25;;;22.05;;
82230;SDS011;71832;45.138;9.816;2024-01-16T03:38:13;47.38;;;23.48;;
82230;SDS011;71832;45.138;9.816;2024-01-16T03:40:41;47.85;;;23.38;;
82230;SDS011;71832;45.138;9.816;2024-01-16T03:43:09;49.20;;;24.08;;
82230;SDS011;71832;45.138;9.816;2024-01-16T03:45:38;51.00;;;24.73;;
82230;SDS011;71832;45.138;9.816;2024-01-16T03:48:06;48.47;;;25.60;;
82230;SDS011;71832;45.138;9.816;2024-01-16T03:50:34;52.47;;;25.33;;
82230;SDS011;71832;45.138;9.816;2024-01-16T03:53:03;47.42;;;24.35;;
82230;SDS011;71832;45.138;9.816;2024-01-16T03:55:31;49.53;;;25.17;;
82230;SDS011;71832;45.138;9.816;2024-01-16T03:58:00;53.00;;;24.20;;
82230;SDS011;71832;45.138;9.816;2024-01-16T04:00:29;49.13;;;25.65;;
82230;SDS011;71832;45.138;9.816;2024-01-16T04:02:58;51.30;;;26.55;;
82230;SDS011;71832;45.138;9.816;2024-01-16T04:05:26;52.53;;;26.40;;
82230;SDS011;71832;45.138;9.816;2024-01-16T04:07:56;50.35;;;26.77;;
82230;SDS011;71832;45.138;9.816;2024-01-16T04:10:25;51.78;;;26.33;;
82230;SDS011;71832;45.138;9.816;2024-01-16T04:12:54;49.67;;;25.77;;
82230;SDS011;71832;45.138;9.816;2024-01-16T04:15:22;50.85;;;24.85;;
82230;SDS011;71832;45.138;9.816;2024-01-16T04:17:51;50.22;;;25.08;;
82230;SDS011;71832;45.138;9.816;2024-01-16T04:20:20;50.17;;;25.65;;
82230;SDS011;71832;45.138;9.816;2024-01-16T04:22:49;50.70;;;25.98;;
82230;SDS011;71832;45.138;9.816;2024-01-16T04:25:17;51.95;;;24.95;;
82230;SDS011;71832;45.138;9.816;2024-01-16T04:27:46;52.92;;;26.10;;
82230;SDS011;71832;45.138;9.816;2024-01-16T04:30:14;48.83;;;25.77;;
82230;SDS011;71832;45.138;9.816;2024-01-16T04:32:42;52.28;;;26.35;;
82230;SDS011;71832;45.138;9.816;2024-01-16T04:35:11;54.78;;;26.98;;
82230;SDS011;71832;45.138;9.816;2024-01-16T04:37:40;51.80;;;27.25;;
82230;SDS011;71832;45.138;9.816;2024-01-16T04:40:08;52.05;;;28.15;;
82230;SDS011;71832;45.138;9.816;2024-01-16T04:42:37;56.25;;;29.23;;
82230;SDS011;71832;45.138;9.816;2024-01-16T04:45:06;53.05;;;29.00;;
82230;SDS011;71832;45.138;9.816;2024-01-16T04:47:35;54.00;;;26.90;;
82230;SDS011;71832;45.138;9.816;2024-01-16T04:50:04;57.50;;;28.90;;
82230;SDS011;71832;45.138;9.816;2024-01-16T04:52:34;58.75;;;27.85;;
82230;SDS011;71832;45.138;9.816;2024-01-16T04:55:02;51.53;;;27.02;;
82230;SDS011;71832;45.138;9.816;2024-01-16T04:57:31;52.22;;;27.08;;
82230;SDS011;71832;45.138;9.816;2024-01-16T05:00:00;57.38;;;28.73;;
82230;SDS011;71832;45.138;9.816;2024-01-16T05:02:33;54.22;;;27.77;;
82230;SDS011;71832;45.138;9.816;2024-01-16T05:05:02;49.40;;;26.77;;
82230;SDS011;71832;45.138;9.816;2024-01-16T05:07:32;55.40;;;26.88;;
82230;SDS011;71832;45.138;9.816;2024-01-16T05:10:01;50.03;;;27.15;;
82230;SDS011;71832;45.138;9.816;2024-01-16T05:12:30;50.75;;;26.15;;
82230;SDS011;71832;45.138;9.816;2024-01-16T05:14:59;50.33;;;25.42;;
82230;SDS011;71832;45.138;9.816;2024-01-16T05:17:27;49.08;;;25.83;;
82230;SDS011;71832;45.138;9.816;2024-01-16T05:19:58;47.05;;;25.70;;
82230;SDS011;71832;45.138;9.816;2024-01-16T05:22:26;52.95;;;26.92;;
82230;SDS011;71832;45.138;9.816;2024-01-16T05:24:55;51.72;;;26.95;;
82230;SDS011;71832;45.138;9.816;2024-01-16T05:27:24;51.05;;;27.15;;
82230;SDS011;71832;45.138;9.816;2024-01-16T05:29:51;55.97;;;27.95;;
82230;SDS011;71832;45.138;9.816;2024-01-16T05:32:19;53.63;;;27.38;;
82230;SDS011;71832;45.138;9.816;2024-01-16T05:34:46;51.67;;;26.55;;
82230;SDS011;71832;45.138;9.816;2024-01-16T05:37:14;55.80;;;27.83;;
82230;SDS011;71832;45.138;9.816;2024-01-16T05:39:41;55.67;;;26.60;;
82230;SDS011;71832;45.138;9.816;2024-01-16T05:42:11;51.30;;;27.40;;
82230;SDS011;71832;45.138;9.816;2024-01-16T05:44:39;52.17;;;26.90;;
82230;SDS011;71832;45.138;9.816;2024-01-16T05:47:08;56.22;;;27.05;;
82230;SDS011;71832;45.138;9.816;2024-01-16T05:49:37;51.97;;;26.52;;
82230;SDS011;71832;45.138;9.816;2024-01-16T05:52:04;52.45;;;26.63;;
82230;SDS011;71832;45.138;9.816;2024-01-16T05:54:33;53.25;;;26.65;;
82230;SDS011;71832;45.138;9.816;2024-01-16T05:57:01;53.97;;;27.35;;
82230;SDS011;71832;45.138;9.816;2024-01-16T05:59:29;56.92;;;28.50;;
82230;SDS011;71832;45.138;9.816;2024-01-16T06:01:57;51.47;;;26.17;;
82230;SDS011;71832;45.138;9.816;2024-01-16T06:04:25;50.33;;;26.77;;
82230;SDS011;71832;45.138;9.816;2024-01-16T06:06:53;52.92;;;26.67;;
82230;SDS011;71832;45.138;9.816;2024-01-16T06:09:22;52.22;;;26.80;;
82230;SDS011;71832;45.138;9.816;2024-01-16T06:11:51;49.70;;;27.08;;
82230;SDS011;71832;45.138;9.816;2024-01-16T06:14:18;52.25;;;24.58;;
82230;SDS011;71832;45.138;9.816;2024-01-16T06:16:47;52.63;;;26.73;;
82230;SDS011;71832;45.138;9.816;2024-01-16T06:19:16;49.35;;;26.27;;
82230;SDS011;71832;45.138;9.816;2024-01-16T06:21:44;52.08;;;26.98;;
82230;SDS011;71832;45.138;9.816;2024-01-16T06:24:13;51.13;;;25.75;;
82230;SDS011;71832;45.138;9.816;2024-01-16T06:26:41;55.50;;;26.35;;
82230;SDS011;71832;45.138;9.816;2024-01-16T06:29:09;53.15;;;27.25;;
82230;SDS011;71832;45.138;9.816;2024-01-16T06:31:37;49.78;;;24.83;;
82230;SDS011;71832;45.138;9.816;2024-01-16T06:34:06;47.92;;;25.63;;
82230;SDS011;71832;45.138;9.816;2024-01-16T06:36:34;48.83;;;25.00;;
82230;SDS011;71832;45.138;9.816;2024-01-16T06:39:02;49.55;;;24.25;;
82230;SDS011;71832;45.138;9.816;2024-01-16T06:41:31;52.92;;;26.90;;
82230;SDS011;71832;45.138;9.816;2024-01-16T06:43:59;48.80;;;25.83;;
82230;SDS011;71832;45.138;9.816;2024-01-16T06:46:27;55.97;;;25.83;;
82230;SDS011;71832;45.138;9.816;2024-01-16T06:48:54;56.20;;;27.08;;
82230;SDS011;71832;45.138;9.816;2024-01-16T06:51:22;53.38;;;26.65;;
82230;SDS011;71832;45.138;9.816;2024-01-16T06:53:49;50.15;;;25.92;;
82230;SDS011;71832;45.138;9.816;2024-01-16T06:56:17;55.40;;;26.65;;
82230;SDS011;71832;45.138;9.816;2024-01-16T06:58:45;53.60;;;26.83;;
82230;SDS011;71832;45.138;9.816;2024-01-16T07:01:13;55.03;;;26.88;;
82230;SDS011;71832;45.138;9.816;2024-01-16T07:03:45;59.15;;;30.65;;
82230;SDS011;71832;45.138;9.816;2024-01-16T07:06:13;59.05;;;28.80;;
82230;SDS011;71832;45.138;9.816;2024-01-16T07:08:41;53.53;;;26.98;;
82230;SDS011;71832;45.138;9.816;2024-01-16T07:11:09;58.05;;;27.95;;
82230;SDS011;71832;45.138;9.816;2024-01-16T07:13:39;54.80;;;27.13;;
82230;SDS011;71832;45.138;9.816;2024-01-16T07:16:10;48.75;;;26.33;;
82230;SDS011;71832;45.138;9.816;2024-01-16T07:18:38;58.00;;;28.83;;
82230;SDS011;71832;45.138;9.816;2024-01-16T07:21:26;55.95;;;26.58;;
82230;SDS011;71832;45.138;9.816;2024-01-16T07:23:53;58.22;;;26.10;;
82230;SDS011;71832;45.138;9.816;2024-01-16T07:26:23;52.30;;;25.73;;
82230;SDS011;71832;45.138;9.816;2024-01-16T07:28:51;58.45;;;28.00;;
82230;SDS011;71832;45.138;9.816;2024-01-16T07:31:19;56.55;;;26.33;;
82230;SDS011;71832;45.138;9.816;2024-01-16T07:33:48;53.08;;;26.60;;
82230;SDS011;71832;45.138;9.816;2024-01-16T07:36:17;54.55;;;26.70;;
82230;SDS011;71832;45.138;9.816;2024-01-16T07:38:46;53.97;;;28.98;;
82230;SDS011;71832;45.138;9.816;2024-01-16T07:41:14;52.95;;;26.27;;
82230;SDS011;71832;45.138;9.816;2024-01-16T07:43:43;54.33;;;26.88;;
82230;SDS011;71832;45.138;9.816;2024-01-16T07:46:12;59.67;;;27.13;;
82230;SDS011;71832;45.138;9.816;2024-01-16T07:48:42;57.03;;;28.13;;
82230;SDS011;71832;45.138;9.816;2024-01-16T07:51:11;51.70;;;26.88;;
82230;SDS011;71832;45.138;9.816;2024-01-16T07:53:39;55.38;;;26.25;;
82230;SDS011;71832;45.138;9.816;2024-01-16T07:56:08;54.53;;;26.92;;
82230;SDS011;71832;45.138;9.816;2024-01-16T07:58:37;51.35;;;26.60;;
82230;SDS011;71832;45.138;9.816;2024-01-16T08:01:06;57.45;;;27.75;;
82230;SDS011;71832;45.138;9.816;2024-01-16T08:03:34;51.33;;;25.75;;
82230;SDS011;71832;45.138;9.816;2024-01-16T08:06:03;54.85;;;26.63;;
82230;SDS011;71832;45.138;9.816;2024-01-16T08:08:32;53.95;;;27.77;;
82230;SDS011;71832;45.138;9.816;2024-01-16T08:11:00;57.35;;;27.80;;
82230;SDS011;71832;45.138;9.816;2024-01-16T08:13:28;60.53;;;28.42;;
82230;SDS011;71832;45.138;9.816;2024-01-16T08:15:56;54.25;;;27.67;;
82230;SDS011;71832;45.138;9.816;2024-01-16T08:18:25;59.85;;;28.88;;
82230;SDS011;71832;45.138;9.816;2024-01-16T08:20:52;59.33;;;29.08;;
82230;SDS011;71832;45.138;9.816;2024-01-16T08:23:20;56.60;;;28.48;;
82230;SDS011;71832;45.138;9.816;2024-01-16T08:25:48;57.55;;;28.63;;
82230;SDS011;71832;45.138;9.816;2024-01-16T08:28:17;59.22;;;29.67;;
82230;SDS011;71832;45.138;9.816;2024-01-16T08:30:46;61.88;;;29.60;;
82230;SDS011;71832;45.138;9.816;2024-01-16T08:33:16;64.75;;;30.13;;
82230;SDS011;71832;45.138;9.816;2024-01-16T08:35:43;70.80;;;31.90;;
82230;SDS011;71832;45.138;9.816;2024-01-16T08:38:12;62.17;;;29.73;;
82230;SDS011;71832;45.138;9.816;2024-01-16T08:40:39;67.35;;;31.67;;
82230;SDS011;71832;45.138;9.816;2024-01-16T08:43:07;67.10;;;31.98;;
82230;SDS011;71832;45.138;9.816;2024-01-16T08:45:34;65.45;;;31.15;;
82230;SDS011;71832;45.138;9.816;2024-01-16T08:48:02;68.63;;;31.08;;
82230;SDS011;71832;45.138;9.816;2024-01-16T08:50:29;66.68;;;31.02;;
82230;SDS011;71832;45.138;9.816;2024-01-16T08:53:00;65.18;;;31.05;;
82230;SDS011;71832;45.138;9.816;2024-01-16T08:55:28;61.55;;;31.08;;
82230;SDS011;71832;45.138;9.816;2024-01-16T08:57:56;65.18;;;32.42;;
82230;SDS011;71832;45.138;9.816;2024-01-16T09:00:23;64.60;;;31.83;;
82230;SDS011;71832;45.138;9.816;2024-01-16T09:02:51;68.07;;;32.55;;
82230;SDS011;71832;45.138;9.816;2024-01-16T09:05:18;65.30;;;32.50;;
82230;SDS011;71832;45.138;9.816;2024-01-16T09:10:18;69.78;;;30.83;;
82230;SDS011;71832;45.138;9.816;2024-01-16T09:12:46;66.55;;;30.00;;
82230;SDS011;71832;45.138;9.816;2024-01-16T09:15:15;70.70;;;31.30;;
82230;SDS011;71832;45.138;9.816;2024-01-16T09:17:44;65.38;;;32.85;;
82230;SDS011;71832;45.138;9.816;2024-01-16T09:20:11;69.45;;;34.33;;
82230;SDS011;71832;45.138;9.816;2024-01-16T09:22:39;67.53;;;31.52;;
82230;SDS011;71832;45.138;9.816;2024-01-16T09:25:07;65.90;;;33.03;;
82230;SDS011;71832;45.138;9.816;2024-01-16T09:28:03;62.78;;;31.00;;
82230;SDS011;71832;45.138;9.816;2024-01-16T09:30:31;67.50;;;32.97;;
82230;SDS011;71832;45.138;9.816;2024-01-16T09:32:59;73.30;;;34.78;;
82230;SDS011;71832;45.138;9.816;2024-01-16T09:35:28;72.95;;;33.97;;
82230;SDS011;71832;45.138;9.816;2024-01-16T09:38:00;74.72;;;35.35;;
82230;SDS011;71832;45.138;9.816;2024-01-16T09:40:28;77.65;;;36.33;;
82230;SDS011;71832;45.138;9.816;2024-01-16T09:42:56;76.97;;;35.90;;
82230;SDS011;71832;45.138;9.816;2024-01-16T09:45:24;71.38;;;36.53;;
82230;SDS011;71832;45.138;9.816;2024-01-16T09:47:53;73.45;;;35.92;;
82230;SDS011;71832;45.138;9.816;2024-01-16T09:50:26;75.32;;;34.47;;
82230;SDS011;71832;45.138;9.816;2024-01-16T09:52:54;74.18;;;35.22;;
82230;SDS011;71832;45.138;9.816;2024-01-16T09:55:22;80.50;;;36.65;;
82230;SDS011;71832;45.138;9.816;2024-01-16T09:57:51;76.47;;;35.92;;
82230;SDS011;71832;45.138;9.816;2024-01-16T10:00:19;81.47;;;38.10;;
82230;SDS011;71832;45.138;9.816;2024-01-16T10:02:56;78.28;;;37.78;;
82230;SDS011;71832;45.138;9.816;2024-01-16T10:05:25;79.07;;;36.47;;
82230;SDS011;71832;45.138;9.816;2024-01-16T10:07:54;77.95;;;38.17;;
82230;SDS011;71832;45.138;9.816;2024-01-16T10:10:22;77.90;;;37.85;;
82230;SDS011;71832;45.138;9.816;2024-01-16T10:12:53;79.53;;;38.63;;
82230;SDS011;71832;45.138;9.816;2024-01-16T10:15:25;81.25;;;38.20;;
82230;SDS011;71832;45.138;9.816;2024-01-16T10:17:53;84.20;;;37.80;;
82230;SDS011;71832;45.138;9.816;2024-01-16T10:20:43;75.95;;;35.13;;
82230;SDS011;71832;45.138;9.816;2024-01-16T10:23:10;79.82;;;37.28;;
82230;SDS011;71832;45.138;9.816;2024-01-16T10:25:38;80.63;;;38.30;;
82230;SDS011;71832;45.138;9.816;2024-01-16T10:28:07;82.97;;;39.03;;
82230;SDS011;71832;45.138;9.816;2024-01-16T10:30:37;86.03;;;40.80;;
82230;SDS011;71832;45.138;9.816;2024-01-16T10:33:12;88.10;;;41.03;;
82230;SDS011;71832;45.138;9.816;2024-01-16T10:35:41;85.68;;;40.78;;
82230;SDS011;71832;45.138;9.816;2024-01-16T10:38:10;80.57;;;37.97;;
82230;SDS011;71832;45.138;9.816;2024-01-16T10:40:48;82.93;;;39.20;;
82230;SDS011;71832;45.138;9.816;2024-01-16T10:43:33;82.93;;;39.55;;
82230;SDS011;71832;45.138;9.816;2024-01-16T10:46:21;90.53;;;41.67;;
82230;SDS011;71832;45.138;9.816;2024-01-16T10:49:00;83.30;;;40.03;;
82230;SDS011;71832;45.138;9.816;2024-01-16T10:51:30;87.97;;;40.85;;
82230;SDS011;71832;45.138;9.816;2024-01-16T10:54:01;84.03;;;40.53;;
82230;SDS011;71832;45.138;9.816;2024-01-16T10:56:33;78.65;;;39.15;;
82230;SDS011;71832;45.138;9.816;2024-01-16T10:59:24;94.25;;;45.90;;
82230;SDS011;71832;45.138;9.816;2024-01-16T11:01:53;87.30;;;41.70;;
82230;SDS011;71832;45.138;9.816;2024-01-16T11:06:52;87.97;;;40.83;;
82230;SDS011;71832;45.138;9.816;2024-01-16T11:09:21;90.95;;;42.50;;
82230;SDS011;71832;45.138;9.816;2024-01-16T11:11:51;92.72;;;41.55;;
82230;SDS011;71832;45.138;9.816;2024-01-16T11:14:22;86.25;;;41.55;;
82230;SDS011;71832;45.138;9.816;2024-01-16T11:16:52;87.90;;;40.72;;
82230;SDS011;71832;45.138;9.816;2024-01-16T11:19:22;94.97;;;42.78;;
82230;SDS011;71832;45.138;9.816;2024-01-16T11:21:51;87.50;;;43.45;;
82230;SDS011;71832;45.138;9.816;2024-01-16T11:24:20;96.78;;;43.70;;
82230;SDS011;71832;45.138;9.816;2024-01-16T11:26:48;96.25;;;44.67;;
82230;SDS011;71832;45.138;9.816;2024-01-16T11:31:55;94.22;;;44.28;;
82230;SDS011;71832;45.138;9.816;2024-01-16T11:37:15;104.57;;;45.22;;
82230;SDS011;71832;45.138;9.816;2024-01-16T11:40:36;99.85;;;44.20;;
82230;SDS011;71832;45.138;9.816;2024-01-16T11:42:48;87.45;;;41.35;;
82230;SDS011;71832;45.138;9.816;2024-01-16T11:48:16;108.38;;;47.33;;
82230;SDS011;71832;45.138;9.816;2024-01-16T11:50:44;102.95;;;45.05;;
82230;SDS011;71832;45.138;9.816;2024-01-16T11:53:55;109.00;;;47.47;;
82230;SDS011;71832;45.138;9.816;2024-01-16T11:58:57;102.88;;;47.13;;
82230;SDS011;71832;45.138;9.816;2024-01-16T12:01:49;103.78;;;45.72;;
82230;SDS011;71832;45.138;9.816;2024-01-16T12:04:20;107.43;;;47.47;;
82230;SDS011;71832;45.138;9.816;2024-01-16T12:06:58;110.60;;;48.08;;
82230;SDS011;71832;45.138;9.816;2024-01-16T12:09:27;110.53;;;47.25;;
82230;SDS011;71832;45.138;9.816;2024-01-16T12:11:56;108.45;;;46.20;;
82230;SDS011;71832;45.138;9.816;2024-01-16T12:14:24;113.20;;;48.13;;
82230;SDS011;71832;45.138;9.816;2024-01-16T12:16:51;111.28;;;47.45;;
82230;SDS011;71832;45.138;9.816;2024-01-16T12:19:19;108.50;;;48.72;;
82230;SDS011;71832;45.138;9.816;2024-01-16T12:21:48;105.60;;;46.55;;
82230;SDS011;71832;45.138;9.816;2024-01-16T12:24:17;109.35;;;49.67;;
82230;SDS011;71832;45.138;9.816;2024-01-16T12:26:45;116.63;;;49.38;;
82230;SDS011;71832;45.138;9.816;2024-01-16T12:29:13;117.22;;;50.03;;
82230;SDS011;71832;45.138;9.816;2024-01-16T12:31:44;114.22;;;48.53;;
82230;SDS011;71832;45.138;9.816;2024-01-16T12:34:13;111.05;;;46.67;;
82230;SDS011;71832;45.138;9.816;2024-01-16T12:36:42;107.10;;;49.70;;
82230;SDS011;71832;45.138;9.816;2024-01-16T12:39:11;108.32;;;45.88;;
82230;SDS011;71832;45.138;9.816;2024-01-16T12:41:41;112.05;;;48.42;;
82230;SDS011;71832;45.138;9.816;2024-01-16T12:44:11;115.50;;;47.92;;
82230;SDS011;71832;45.138;9.816;2024-01-16T12:46:40;111.15;;;46.78;;
82230;SDS011;71832;45.138;9.816;2024-01-16T12:49:09;117.88;;;48.92;;
82230;SDS011;71832;45.138;9.816;2024-01-16T12:51:37;111.90;;;48.85;;
82230;SDS011;71832;45.138;9.816;2024-01-16T12:54:10;107.75;;;47.25;;
82230;SDS011;71832;45.138;9.816;2024-01-16T12:56:39;114.93;;;47.33;;
82230;SDS011;71832;45.138;9.816;2024-01-16T12:59:11;107.38;;;45.97;;
82230;SDS011;71832;45.138;9.816;2024-01-16T13:01:40;113.40;;;47.28;;
82230;SDS011;71832;45.138;9.816;2024-01-16T13:04:13;97.57;;;45.17;;
82230;SDS011;71832;45.138;9.816;2024-01-16T13:06:44;101.22;;;44.20;;
82230;SDS011;71832;45.138;9.816;2024-01-16T13:09:14;110.40;;;47.58;;
82230;SDS011;71832;45.138;9.816;2024-01-16T13:11:53;100.38;;;45.53;;
82230;SDS011;71832;45.138;9.816;2024-01-16T13:14:24;97.28;;;43.40;;
82230;SDS011;71832;45.138;9.816;2024-01-16T13:16:53;98.80;;;44.05;;
82230;SDS011;71832;45.138;9.816;2024-01-16T13:19:21;101.30;;;44.78;;
82230;SDS011;71832;45.138;9.816;2024-01-16T13:21:49;99.03;;;41.67;;
82230;SDS011;71832;45.138;9.816;2024-01-16T13:24:18;97.32;;;41.45;;
82230;SDS011;71832;45.138;9.816;2024-01-16T13:26:49;97.93;;;40.17;;
82230;SDS011;71832;45.138;9.816;2024-01-16T13:29:18;98.07;;;42.20;;
82230;SDS011;71832;45.138;9.816;2024-01-16T13:31:47;100.13;;;43.13;;
82230;SDS011;71832;45.138;9.816;2024-01-16T13:34:20;99.47;;;42.20;;
82230;SDS011;71832;45.138;9.816;2024-01-16T13:36:48;100.30;;;41.25;;
82230;SDS011;71832;45.138;9.816;2024-01-16T13:39:18;96.22;;;41.45;;
82230;SDS011;71832;45.138;9.816;2024-01-16T13:41:47;94.50;;;42.78;;
82230;SDS011;71832;45.138;9.816;2024-01-16T13:44:16;107.85;;;41.75;;
82230;SDS011;71832;45.138;9.816;2024-01-16T13:46:44;110.28;;;44.83;;
82230;SDS011;71832;45.138;9.816;2024-01-16T13:49:13;104.47;;;41.75;;
82230;SDS011;71832;45.138;9.816;2024-01-16T13:51:43;95.70;;;42.13;;
82230;SDS011;71832;45.138;9.816;2024-01-16T13:54:11;96.38;;;40.88;;
82230;SDS011;71832;45.138;9.816;2024-01-16T13:56:41;96.72;;;44.30;;
82230;SDS011;71832;45.138;9.816;2024-01-16T13:59:10;95.82;;;41.40;;
82230;SDS011;71832;45.138;9.816;2024-01-16T14:01:38;104.57;;;44.17;;
82230;SDS011;71832;45.138;9.816;2024-01-16T14:04:06;102.82;;;42.00;;
82230;SDS011;71832;45.138;9.816;2024-01-16T14:06:34;105.07;;;43.03;;
82230;SDS011;71832;45.138;9.816;2024-01-16T14:09:03;101.68;;;42.92;;
82230;SDS011;71832;45.138;9.816;2024-01-16T14:11:35;92.80;;;41.78;;
82230;SDS011;71832;45.138;9.816;2024-01-16T14:14:03;106.40;;;44.35;;
82230;SDS011;71832;45.138;9.816;2024-01-16T14:16:32;97.22;;;42.42;;
82230;SDS011;71832;45.138;9.816;2024-01-16T14:19:01;103.85;;;43.10;;
82230;SDS011;71832;45.138;9.816;2024-01-16T14:21:29;98.38;;;41.00;;
82230;SDS011;71832;45.138;9.816;2024-01-16T14:23:58;102.80;;;42.33;;
82230;SDS011;71832;45.138;9.816;2024-01-16T14:26:27;92.22;;;39.42;;
82230;SDS011;71832;45.138;9.816;2024-01-16T14:28:55;87.75;;;38.45;;
82230;SDS011;71832;45.138;9.816;2024-01-16T14:31:24;101.75;;;41.03;;
82230;SDS011;71832;45.138;9.816;2024-01-16T14:33:53;90.88;;;39.97;;
82230;SDS011;71832;45.138;9.816;2024-01-16T14:36:22;94.32;;;39.35;;
82230;SDS011;71832;45.138;9.816;2024-01-16T14:38:51;91.28;;;39.22;;
82230;SDS011;71832;45.138;9.816;2024-01-16T14:41:19;86.55;;;37.45;;
82230;SDS011;71832;45.138;9.816;2024-01-16T14:43:47;86.00;;;37.67;;
82230;SDS011;71832;45.138;9.816;2024-01-16T14:46:16;87.78;;;37.67;;
82230;SDS011;71832;45.138;9.816;2024-01-16T14:48:44;96.32;;;37.50;;
82230;SDS011;71832;45.138;9.816;2024-01-16T14:51:12;82.07;;;36.85;;